Time;durP1;ratioP1;P1;durP2;ratioP2;P2;SDS_P1;SDS_P2;PMS_P1;PMS_P2;Temp;Humidity;BMP_temperature;BMP_pressure;BME280_temperature;BME280_humidity;BME280_pressure;Samples;Min_cycle;Max_cycle;Signal;HPM_P1;HPM_P2
2022/02/02 00:05:29;;;;;;;26.50;6.80;;;9.20;84.70;;;;;;4974180;28;20058;-86
2022/02/02 00:08:15;;;;;;;16.70;4.95;;;9.20;84.70;;;;;;4986835;28;20137;-87
2022/02/02 00:13:31;;;;;;;21.73;5.80;;;9.20;84.70;;;;;;4977751;28;20133;-88
2022/02/02 00:16:08;;;;;;;18.23;5.93;;;9.20;84.70;;;;;;4978088;28;20057;-89
2022/02/02 00:21:39;;;;;;;23.13;6.43;;;9.10;84.70;;;;;;4978739;28;20050;-87
2022/02/02 00:24:18;;;;;;;25.45;7.03;;;9.20;84.70;;;;;;4977229;28;20068;-86
2022/02/02 00:26:46;;;;;;;24.83;6.78;;;9.10;84.80;;;;;;4976335;28;20061;-87
2022/02/02 00:29:18;;;;;;;20.80;6.57;;;9.10;84.80;;;;;;4974297;28;20046;-87
2022/02/02 00:31:56;;;;;;;24.10;6.95;;;9.10;84.80;;;;;;4988571;28;20057;-87
2022/02/02 00:34:26;;;;;;;24.40;7.05;;;9.10;84.90;;;;;;4986648;28;20046;-87
2022/02/02 00:36:56;;;;;;;25.15;7.25;;;9.10;84.90;;;;;;4979627;28;20527;-87
2022/02/02 00:39:28;;;;;;;29.85;7.45;;;9.10;84.90;;;;;;4977617;28;20140;-86
2022/02/02 00:41:56;;;;;;;26.25;8.07;;;9.10;84.90;;;;;;4977753;28;20533;-86
2022/02/02 00:44:25;;;;;;;18.42;6.72;;;9.10;85.00;;;;;;4974044;28;20046;-86
2022/02/02 00:46:54;;;;;;;21.30;6.97;;;9.10;85.00;;;;;;4987740;28;20137;-86
2022/02/02 00:49:23;;;;;;;22.15;7.18;;;9.10;85.00;;;;;;4972882;28;20055;-86
2022/02/02 00:51:55;;;;;;;17.98;7.70;;;9.10;85.00;;;;;;4977283;28;20061;-87
2022/02/02 00:54:26;;;;;;;19.92;7.47;;;9.10;85.00;;;;;;4977255;28;20081;-86
2022/02/02 00:56:53;;;;;;;28.00;7.63;;;9.00;85.00;;;;;;4988739;28;20046;-86
2022/02/02 00:59:24;;;;;;;16.95;7.18;;;9.10;85.10;;;;;;4972906;28;20046;-86
2022/02/02 01:01:52;;;;;;;20.67;7.03;;;9.00;85.10;;;;;;4978434;28;20085;-86
2022/02/02 01:04:19;;;;;;;23.77;7.40;;;9.10;85.10;;;;;;4989547;28;20078;-88
2022/02/02 01:07:17;;;;;;;22.75;7.28;;;9.00;85.10;;;;;;4980995;28;20062;-88
2022/02/02 01:09:42;;;;;;;18.83;7.32;;;9.00;85.10;;;;;;4980898;28;20073;-88
2022/02/02 01:28:28;;;;;;;22.98;7.47;;;9.00;85.20;;;;;;4998186;28;20050;-87
2022/02/02 01:30:55;;;;;;;20.85;6.93;;;9.00;85.20;;;;;;4996332;28;20046;-87
2022/02/02 01:33:23;;;;;;;18.50;7.35;;;9.00;85.20;;;;;;4995574;28;20435;-86
2022/02/02 01:35:50;;;;;;;21.92;7.25;;;9.00;85.30;;;;;;4997082;28;20043;-87
2022/02/02 01:38:18;;;;;;;20.17;6.97;;;9.00;85.30;;;;;;4980210;28;20037;-87
2022/02/02 01:40:53;;;;;;;19.10;6.57;;;9.00;85.30;;;;;;4996204;28;20065;-87
2022/02/02 01:43:29;;;;;;;14.48;6.82;;;9.00;85.30;;;;;;4996844;28;20525;-86
2022/02/02 01:46:02;;;;;;;23.85;7.03;;;8.90;85.30;;;;;;4996193;28;20054;-87
2022/02/02 01:56:10;;;;;;;21.42;7.15;;;8.90;85.40;;;;;;4996466;28;20051;-86
2022/02/02 01:58:57;;;;;;;18.08;6.38;;;8.90;85.40;;;;;;4995643;28;20054;-87
2022/02/02 02:01:24;;;;;;;30.85;7.32;;;9.00;85.40;;;;;;4995548;28;20061;-87
2022/02/02 02:03:56;;;;;;;24.58;6.15;;;9.00;85.40;;;;;;4996296;28;20082;-89
2022/02/02 02:06:23;;;;;;;25.90;7.05;;;8.90;85.50;;;;;;4996261;28;20129;-85
2022/02/02 02:08:51;;;;;;;24.60;6.75;;;8.90;85.50;;;;;;4996095;28;20052;-86
2022/02/02 02:11:20;;;;;;;16.83;6.15;;;9.00;85.50;;;;;;4979647;28;20053;-87
2022/02/02 02:16:18;;;;;;;19.05;6.28;;;9.00;85.60;;;;;;4995923;28;20407;-86
2022/02/02 02:18:45;;;;;;;23.33;6.57;;;9.00;85.60;;;;;;4996071;28;20522;-86
2022/02/02 02:21:16;;;;;;;19.63;7.22;;;9.00;85.70;;;;;;4995795;28;20526;-87
2022/02/02 02:23:46;;;;;;;17.83;6.80;;;9.00;85.70;;;;;;4996002;28;20495;-87
2022/02/02 02:26:21;;;;;;;19.50;6.50;;;9.00;85.70;;;;;;4995806;28;20525;-86
2022/02/02 02:32:13;;;;;;;22.17;6.07;;;9.00;85.70;;;;;;4934693;29;20056;-88
2022/02/02 02:39:58;;;;;;;14.98;5.63;;;9.00;85.70;;;;;;4931560;29;20518;-87
2022/02/02 02:56:20;;;;;;;16.10;6.03;;;9.00;85.70;;;;;;4931582;29;20525;-86
2022/02/02 02:58:59;;;;;;;15.15;5.57;;;9.00;85.70;;;;;;4930500;29;20497;-87
2022/02/02 03:34:56;;;;;;;20.67;5.93;;;9.00;85.70;;;;;;4945098;28;20408;-86
2022/02/02 04:04:52;;;;;;;25.88;6.78;;;8.90;85.60;;;;;;4973367;28;20050;-86
2022/02/02 04:07:30;;;;;;;19.90;6.38;;;8.90;85.60;;;;;;4972290;28;20057;-86
2022/02/02 04:10:03;;;;;;;16.77;5.53;;;8.90;85.60;;;;;;4971888;28;20057;-87
2022/02/02 04:12:57;;;;;;;18.08;5.50;;;8.90;85.60;;;;;;4974393;28;20054;-86
2022/02/02 04:59:28;;;;;;;15.15;4.47;;;8.90;85.80;;;;;;4972211;28;20042;-87
2022/02/02 05:05:07;;;;;;;16.00;4.65;;;8.90;85.80;;;;;;4971417;28;20522;-86
2022/02/02 05:07:35;;;;;;;16.27;4.45;;;9.00;85.80;;;;;;4973356;28;20051;-88
2022/02/02 05:51:24;;;;;;;16.42;4.43;;;9.00;85.70;;;;;;4917955;29;20044;-87
2022/02/02 05:53:42;;;;;;;12.25;4.50;;;9.00;85.70;;;;;;4955671;28;20443;-87
2022/02/02 05:56:09;;;;;;;17.48;4.70;;;9.10;85.70;;;;;;4977021;28;20047;-87
2022/02/02 05:58:38;;;;;;;13.27;4.20;;;9.00;85.70;;;;;;4976128;28;20057;-87
2022/02/02 06:01:07;;;;;;;13.63;5.03;;;9.00;85.70;;;;;;4976781;28;20065;-87
2022/02/02 06:03:44;;;;;;;28.30;6.40;;;9.10;85.70;;;;;;4976742;28;20155;-87
2022/02/02 06:06:12;;;;;;;15.25;4.95;;;9.10;85.70;;;;;;4976427;28;20518;-87
2022/02/02 06:08:44;;;;;;;19.77;5.25;;;9.10;85.70;;;;;;4983044;28;20426;-87
2022/02/02 06:11:14;;;;;;;16.05;4.45;;;9.10;85.70;;;;;;4996221;28;20072;-87
2022/02/02 06:13:45;;;;;;;15.73;5.35;;;9.10;85.70;;;;;;4994316;28;20051;-86
2022/02/02 06:16:12;;;;;;;21.55;5.35;;;9.10;85.70;;;;;;4996124;28;20507;-87
2022/02/02 06:18:39;;;;;;;17.23;5.22;;;9.10;85.70;;;;;;4996040;28;20047;-86
2022/02/02 06:21:08;;;;;;;20.45;4.82;;;9.10;85.60;;;;;;4995613;28;20053;-87
2022/02/02 06:23:39;;;;;;;14.93;5.30;;;9.10;85.70;;;;;;4996134;28;20054;-87
2022/02/02 06:26:14;;;;;;;20.70;5.55;;;9.10;85.70;;;;;;4994827;28;20495;-87
2022/02/02 06:28:43;;;;;;;16.67;4.75;;;9.10;85.60;;;;;;4995042;28;20426;-86
2022/02/02 06:31:14;;;;;;;19.55;5.35;;;9.10;85.60;;;;;;4995598;28;20136;-88
2022/02/02 06:33:54;;;;;;;17.70;5.50;;;9.10;85.60;;;;;;4995632;28;20108;-86
2022/02/02 06:36:21;;;;;;;20.50;5.45;;;9.10;85.60;;;;;;4995347;28;20042;-87
2022/02/02 06:38:48;;;;;;;16.60;5.20;;;9.10;85.60;;;;;;4995616;28;20050;-87
2022/02/02 06:41:17;;;;;;;16.80;5.60;;;9.10;85.60;;;;;;4995672;28;20081;-87
2022/02/02 06:43:45;;;;;;;24.27;5.88;;;9.10;85.60;;;;;;4994742;28;20133;-87
2022/02/02 06:46:13;;;;;;;18.30;5.88;;;9.10;85.60;;;;;;4995583;28;20085;-87
2022/02/02 06:48:40;;;;;;;17.65;5.40;;;9.20;85.60;;;;;;4995378;28;20049;-87
2022/02/02 06:51:19;;;;;;;22.75;5.97;;;9.20;85.60;;;;;;4994967;28;20042;-87
2022/02/02 06:53:57;;;;;;;18.73;5.88;;;9.20;85.60;;;;;;4995557;28;20058;-87
2022/02/02 07:07:47;;;;;;;16.77;5.45;;;9.20;85.60;;;;;;4983536;28;20061;-86
2022/02/02 07:13:32;;;;;;;16.30;5.60;;;9.20;85.60;;;;;;4953392;28;20055;-87
2022/02/02 07:29:14;;;;;;;15.43;5.53;;;9.20;85.70;;;;;;4876704;29;20511;-86
2022/02/02 07:32:14;;;;;;;14.95;5.57;;;9.20;85.70;;;;;;4877019;29;20063;-86
2022/02/02 07:37:42;;;;;;;15.98;5.88;;;9.20;85.70;;;;;;4875338;29;20478;-86
2022/02/02 07:40:10;;;;;;;25.48;6.32;;;9.20;85.60;;;;;;4877498;29;20097;-86
2022/02/02 07:42:47;;;;;;;17.23;5.60;;;9.20;85.60;;;;;;4877477;29;20052;-87
2022/02/02 07:45:17;;;;;;;16.63;5.70;;;9.30;85.60;;;;;;4877359;29;20048;-86
2022/02/02 07:47:49;;;;;;;17.20;5.95;;;9.30;85.60;;;;;;4860487;29;20150;-87
2022/02/02 07:50:18;;;;;;;15.77;5.53;;;9.20;85.60;;;;;;4894734;29;20048;-87
2022/02/02 07:52:46;;;;;;;15.20;5.55;;;9.30;85.60;;;;;;4913657;29;20055;-87
2022/02/02 07:55:14;;;;;;;18.65;5.82;;;9.30;85.60;;;;;;4914851;29;20164;-86
2022/02/02 07:57:45;;;;;;;20.90;6.18;;;9.30;85.60;;;;;;4895022;29;20086;-87
2022/02/02 08:00:19;;;;;;;16.35;5.93;;;9.30;85.60;;;;;;4914503;29;20044;-87
2022/02/02 08:05:17;;;;;;;21.77;6.20;;;9.30;85.60;;;;;;4929790;28;20046;-87
2022/02/02 08:08:15;;;;;;;19.17;6.20;;;9.30;85.60;;;;;;4992679;28;20201;-87
2022/02/02 08:10:33;;;;;;;15.30;5.93;;;9.30;85.60;;;;;;4990403;28;20085;-87
2022/02/02 08:13:08;;;;;;;13.80;5.75;;;9.30;85.60;;;;;;4993583;28;20058;-87
2022/02/02 08:15:39;;;;;;;16.17;6.18;;;9.30;85.50;;;;;;4993472;28;20050;-87
2022/02/02 08:18:06;;;;;;;15.98;5.88;;;9.30;85.60;;;;;;4993306;28;20061;-86
2022/02/02 08:20:34;;;;;;;20.67;6.60;;;9.30;85.60;;;;;;4993541;28;20042;-87
2022/02/02 08:23:01;;;;;;;13.45;6.13;;;9.40;85.60;;;;;;4991608;28;20523;-87
2022/02/02 08:25:30;;;;;;;24.30;7.18;;;9.40;85.50;;;;;;4991518;28;20513;-86
2022/02/02 08:28:04;;;;;;;18.60;6.57;;;9.40;85.50;;;;;;4993471;28;20055;-86
2022/02/02 08:30:32;;;;;;;12.25;5.93;;;9.40;85.60;;;;;;4993321;28;20125;-86
2022/02/02 08:33:01;;;;;;;18.55;6.63;;;9.40;85.60;;;;;;4992900;28;20065;-87
2022/02/02 08:35:34;;;;;;;16.17;6.90;;;9.40;85.60;;;;;;4993220;28;20053;-87
2022/02/02 08:38:29;;;;;;;18.80;7.13;;;9.40;85.50;;;;;;4993454;28;20059;-87
2022/02/02 08:41:06;;;;;;;20.35;6.05;;;9.40;85.50;;;;;;4989776;28;20046;-87
2022/02/02 08:43:40;;;;;;;23.73;6.45;;;9.40;85.50;;;;;;4990270;28;20053;-87
2022/02/02 08:46:20;;;;;;;19.33;6.35;;;9.40;85.50;;;;;;4993051;28;20423;-86
2022/02/02 08:48:50;;;;;;;21.13;6.30;;;9.40;85.50;;;;;;4993653;28;20050;-86
2022/02/02 08:51:20;;;;;;;16.08;5.90;;;9.40;85.50;;;;;;4991645;28;20054;-86
2022/02/02 08:58:49;;;;;;;13.20;6.03;;;9.40;85.50;;;;;;4987998;28;20061;-87
2022/02/02 09:01:24;;;;;;;11.50;5.68;;;9.40;85.50;;;;;;4994314;28;20102;-87
2022/02/02 09:06:37;;;;;;;14.68;5.85;;;9.40;85.40;;;;;;4992898;28;20050;-89
2022/02/02 09:09:24;;;;;;;17.58;5.60;;;9.50;85.40;;;;;;4991885;28;20050;-88
2022/02/02 09:20:30;;;;;;;15.77;5.05;;;9.50;85.40;;;;;;4992546;28;20142;-87
2022/02/02 09:25:43;;;;;;;18.38;6.40;;;9.50;85.40;;;;;;4994869;28;20051;-87
2022/02/02 09:36:30;;;;;;;17.92;5.70;;;9.60;85.30;;;;;;4991841;28;20586;-86
2022/02/02 09:39:00;;;;;;;11.52;4.63;;;9.60;85.30;;;;;;4986390;28;20052;-86
2022/02/02 09:44:08;;;;;;;14.70;4.80;;;9.60;85.30;;;;;;4996206;28;20054;-86
2022/02/02 09:49:30;;;;;;;17.02;5.22;;;9.70;85.30;;;;;;4996432;28;20495;-86
2022/02/02 09:52:13;;;;;;;16.25;4.45;;;9.70;85.30;;;;;;4996216;28;20471;-86
2022/02/02 09:54:58;;;;;;;20.48;5.60;;;9.70;85.20;;;;;;4996053;28;20510;-86
2022/02/02 10:00:21;;;;;;;14.88;4.88;;;9.70;85.10;;;;;;4995500;28;20050;-89
2022/02/02 10:09:21;;;;;;;14.65;5.93;;;9.70;85.00;;;;;;4950125;29;20047;-87
2022/02/02 10:12:30;;;;;;;15.27;5.78;;;9.70;85.00;;;;;;4934459;29;20057;-86
2022/02/02 10:14:50;;;;;;;12.27;5.32;;;9.80;85.00;;;;;;4936519;29;20436;-86
2022/02/02 10:17:17;;;;;;;14.35;5.00;;;9.80;85.00;;;;;;4953682;29;20051;-86
2022/02/02 10:19:44;;;;;;;8.90;4.20;;;9.80;85.00;;;;;;4954446;29;20424;-86
2022/02/02 10:22:28;;;;;;;18.85;5.32;;;9.80;84.90;;;;;;4949633;29;20047;-86
2022/02/02 10:25:00;;;;;;;14.60;4.20;;;9.80;84.90;;;;;;4949553;29;20530;-89
2022/02/02 10:27:35;;;;;;;12.02;4.65;;;9.80;84.90;;;;;;4933355;29;20043;-88
2022/02/02 10:30:14;;;;;;;12.95;4.25;;;9.80;84.90;;;;;;4935099;29;20059;-89
2022/02/02 10:32:46;;;;;;;11.98;4.20;;;9.90;84.90;;;;;;4950036;28;20060;-87
2022/02/02 10:35:33;;;;;;;12.98;4.18;;;9.90;84.80;;;;;;4952922;29;22397;-89
2022/02/02 10:38:23;;;;;;;10.10;4.05;;;9.90;84.80;;;;;;4980145;28;20050;-88
2022/02/02 10:43:42;;;;;;;10.80;3.78;;;9.90;84.80;;;;;;4996523;28;20121;-89
2022/02/02 10:46:18;;;;;;;10.63;3.85;;;9.90;84.70;;;;;;4994419;28;20415;-88
2022/02/02 10:48:51;;;;;;;10.25;3.38;;;9.90;84.70;;;;;;4995489;28;20058;-87
2022/02/02 10:51:34;;;;;;;10.98;3.58;;;9.90;84.70;;;;;;4994307;28;20042;-88
2022/02/02 10:56:56;;;;;;;8.95;3.60;;;10.00;84.60;;;;;;4995189;28;20133;-89
2022/02/02 11:07:11;;;;;;;8.10;3.70;;;10.10;84.40;;;;;;4995166;28;20042;-88
2022/02/02 11:09:39;;;;;;;5.80;3.08;;;10.10;84.40;;;;;;4994958;28;20058;-89
2022/02/02 11:12:09;;;;;;;8.45;3.30;;;10.10;84.30;;;;;;4994575;28;20042;-89
2022/02/02 11:15:00;;;;;;;10.23;3.40;;;10.10;84.30;;;;;;4994159;28;20405;-88
2022/02/02 11:17:51;;;;;;;17.42;3.42;;;10.10;84.20;;;;;;4980552;28;20497;-90
2022/02/02 11:20:20;;;;;;;7.60;3.15;;;10.10;84.10;;;;;;4979350;28;20521;-89
2022/02/02 11:22:53;;;;;;;9.32;3.25;;;10.10;84.10;;;;;;4990616;28;20061;-89
2022/02/02 11:25:23;;;;;;;7.65;3.45;;;10.20;84.00;;;;;;4993335;28;20062;-89
2022/02/02 11:27:55;;;;;;;6.70;3.17;;;10.20;83.90;;;;;;4993633;28;20427;-88
2022/02/02 11:30:26;;;;;;;6.13;3.20;;;10.20;83.90;;;;;;4993638;28;20415;-89
2022/02/02 11:33:17;;;;;;;10.70;3.22;;;10.20;83.80;;;;;;4994601;28;20056;-88
2022/02/02 11:35:46;;;;;;;7.55;3.20;;;10.20;83.80;;;;;;4994860;28;20046;-89
2022/02/02 11:38:33;;;;;;;9.85;3.28;;;10.20;83.70;;;;;;4981001;28;20504;-89
2022/02/02 11:44:18;;;;;;;5.43;2.92;;;10.20;83.70;;;;;;4992686;28;20065;-89
2022/02/02 11:49:35;;;;;;;7.72;3.22;;;10.20;83.60;;;;;;4991876;28;20054;-90
2022/02/02 11:52:03;;;;;;;19.83;3.72;;;10.20;83.60;;;;;;4993537;28;20051;-90
2022/02/02 11:54:39;;;;;;;7.70;3.03;;;10.20;83.50;;;;;;4992886;28;20541;-89
2022/02/02 11:57:21;;;;;;;7.78;3.00;;;10.30;83.50;;;;;;4993219;28;20046;-89
2022/02/02 12:00:19;;;;;;;10.20;3.45;;;10.30;83.50;;;;;;4994316;28;20400;-89
2022/02/02 12:06:29;;;;;;;5.85;2.92;;;10.30;83.40;;;;;;4949114;28;20044;-89
2022/02/02 12:48:22;;;;;;;16.08;3.58;;;10.40;83.20;;;;;;4993790;28;20073;-87
2022/02/02 12:53:39;;;;;;;8.40;3.22;;;10.50;83.20;;;;;;4984456;28;20054;-88
2022/02/02 12:54:10;;;;;;;7.15;3.05;;;10.60;83.10;;;;;;4992404;28;20065;-88
2022/02/02 12:56:35;;;;;;;;;;;10.60;83.10;;;;;;4991307;28;20516;-89
2022/02/02 12:59:36;;;;;;;9.57;3.35;;;10.60;83.00;;;;;;4986227;28;19922;-89
2022/02/02 13:02:10;;;;;;;10.40;3.65;;;10.60;82.90;;;;;;4994077;28;20054;-89
2022/02/02 13:04:40;;;;;;;6.45;3.00;;;10.60;82.90;;;;;;4995327;28;20058;-89
2022/02/02 13:07:11;;;;;;;8.10;3.03;;;10.60;82.80;;;;;;4996856;28;20062;-89
2022/02/02 13:09:41;;;;;;;7.65;2.50;;;10.70;82.80;;;;;;4995742;28;20057;-90
2022/02/02 13:12:18;;;;;;;6.10;2.97;;;10.70;82.70;;;;;;4995860;28;20141;-89
2022/02/02 13:15:07;;;;;;;7.07;3.03;;;10.70;82.60;;;;;;4997177;28;20062;-89
2022/02/02 13:17:43;;;;;;;8.23;3.55;;;10.70;82.60;;;;;;4983754;28;20515;-89
2022/02/02 13:20:13;;;;;;;6.57;2.70;;;10.70;82.50;;;;;;4997097;28;20103;-89
2022/02/02 13:23:01;;;;;;;8.77;2.90;;;10.80;82.50;;;;;;4995541;28;20054;-88
2022/02/02 13:25:31;;;;;;;9.98;3.28;;;10.80;82.40;;;;;;4997978;28;20057;-89
2022/02/02 13:28:00;;;;;;;10.85;3.10;;;10.80;82.40;;;;;;4995515;28;20056;-88
2022/02/02 13:30:48;;;;;;;9.30;3.00;;;10.80;82.30;;;;;;4996335;28;20050;-88
2022/02/02 13:33:32;;;;;;;12.02;3.33;;;10.80;82.30;;;;;;4996446;28;20074;-89
2022/02/02 13:47:59;;;;;;;10.88;3.45;;;10.80;82.00;;;;;;4939176;29;20530;-89
2022/02/02 14:01:45;;;;;;;8.75;2.97;;;10.80;81.80;;;;;;4952269;28;20059;-88
2022/02/02 14:09:31;;;;;;;9.38;3.63;;;10.80;81.70;;;;;;4950693;29;20052;-89
2022/02/02 14:31:23;;;;;;;7.85;2.83;;;10.60;81.80;;;;;;4995879;28;20050;-87
2022/02/02 14:33:56;;;;;;;9.02;3.95;;;10.60;81.80;;;;;;4995466;28;20058;-86
2022/02/02 14:36:27;;;;;;;10.32;3.58;;;10.60;81.80;;;;;;4994787;28;20070;-87
2022/02/02 14:39:13;;;;;;;11.25;3.85;;;10.60;81.80;;;;;;4994720;28;20046;-87
2022/02/02 14:41:47;;;;;;;9.90;3.60;;;10.50;81.80;;;;;;4995738;28;20430;-87
2022/02/02 14:44:21;;;;;;;8.32;3.70;;;10.60;81.80;;;;;;4995751;28;20050;-86
2022/02/02 14:47:15;;;;;;;8.07;3.28;;;10.50;81.80;;;;;;4989825;28;20043;-87
2022/02/02 15:09:44;;;;;;;11.98;4.35;;;10.40;81.80;;;;;;4995215;28;20064;-87
2022/02/02 15:28:18;;;;;;;10.98;3.90;;;10.30;81.90;;;;;;4994936;28;20059;-86
2022/02/02 15:33:26;;;;;;;11.43;4.00;;;10.30;81.90;;;;;;4994167;28;20495;-86
2022/02/02 15:38:34;;;;;;;5.95;3.38;;;10.30;82.00;;;;;;4994619;28;20048;-87
2022/02/02 15:41:06;;;;;;;11.70;4.47;;;10.30;82.10;;;;;;4993251;28;20050;-87
2022/02/02 15:44:54;;;;;;;8.32;4.45;;;10.30;82.10;;;;;;4992155;28;20499;-88
2022/02/02 15:55:02;;;;;;;15.32;4.30;;;10.30;82.20;;;;;;4994199;28;20050;-87
2022/02/02 16:08:09;;;;;;;8.02;3.88;;;10.20;82.20;;;;;;4932691;29;20062;-87
2022/02/02 16:11:24;;;;;;;8.68;4.05;;;10.20;82.20;;;;;;4929312;29;20087;-87
2022/02/02 16:13:30;;;;;;;6.97;3.60;;;10.20;82.20;;;;;;4927848;29;20055;-86
2022/02/02 16:16:04;;;;;;;9.18;3.55;;;10.20;82.20;;;;;;4929490;29;20062;-87
2022/02/02 16:32:40;;;;;;;14.95;4.55;;;10.10;82.30;;;;;;4895370;28;20139;-87
2022/02/02 16:37:36;;;;;;;9.95;4.05;;;10.10;82.40;;;;;;4893278;29;20077;-87
2022/02/02 16:40:06;;;;;;;13.90;4.50;;;10.10;82.30;;;;;;4938680;28;20050;-87
2022/02/02 16:45:22;;;;;;;8.88;3.70;;;10.10;82.40;;;;;;4971663;28;20042;-89
2022/02/02 16:47:50;;;;;;;9.20;4.15;;;10.00;82.30;;;;;;4972155;28;20042;-87
2022/02/02 16:50:21;;;;;;;8.40;3.70;;;10.00;82.40;;;;;;4972246;28;20054;-88
2022/02/02 16:52:52;;;;;;;10.80;3.85;;;10.00;82.40;;;;;;4952230;29;20451;-88
2022/02/02 17:32:27;;;;;;;11.65;3.95;;;9.90;82.40;;;;;;4894582;29;20522;-87
2022/02/02 17:35:32;;;;;;;11.45;4.25;;;9.80;82.50;;;;;;4893166;29;20498;-87
2022/02/02 17:37:47;;;;;;;8.77;3.45;;;9.80;82.50;;;;;;4884985;29;20052;-86
2022/02/02 17:40:37;;;;;;;17.73;3.95;;;9.80;82.50;;;;;;4895377;29;20068;-86
2022/02/02 17:43:50;;;;;;;9.68;3.80;;;9.80;82.50;;;;;;4910608;29;20559;-87
2022/02/02 18:19:03;;;;;;;11.05;4.85;;;9.60;82.90;;;;;;4898123;29;20056;-88
2022/02/02 18:21:31;;;;;;;14.75;6.03;;;9.60;83.00;;;;;;4909510;28;20069;-88
2022/02/02 18:26:48;;;;;;;12.82;5.45;;;9.60;83.00;;;;;;4995699;28;20047;-87
2022/02/02 18:29:29;;;;;;;14.48;6.13;;;9.60;83.00;;;;;;4996128;28;20056;-88
2022/02/02 18:32:12;;;;;;;12.70;5.78;;;9.60;83.10;;;;;;4991274;28;20066;-88
2022/02/02 18:34:52;;;;;;;12.30;6.15;;;9.60;83.10;;;;;;4994392;28;20050;-87
2022/02/02 18:46:22;;;;;;;17.48;5.90;;;9.60;83.20;;;;;;4950413;28;20047;-86
2022/02/02 18:59:36;;;;;;;17.50;4.05;;;9.50;83.20;;;;;;4953787;28;20427;-87
2022/02/02 19:02:18;;;;;;;11.93;3.85;;;9.50;83.10;;;;;;4954654;28;20063;-87
2022/02/02 19:31:06;;;;;;;7.75;3.42;;;9.50;82.90;;;;;;4989578;28;20069;-88
2022/02/02 20:08:57;;;;;;;9.93;3.03;;;8.90;82.60;;;;;;4910618;29;20062;-87
2022/02/02 20:11:00;;;;;;;9.30;3.67;;;8.90;82.70;;;;;;4904551;29;20052;-87
2022/02/02 20:13:27;;;;;;;10.38;3.30;;;8.90;82.70;;;;;;4915412;29;20052;-87
2022/02/02 20:15:55;;;;;;;8.57;3.63;;;8.90;82.70;;;;;;4911414;29;20048;-88
2022/02/02 20:18:24;;;;;;;11.80;3.67;;;8.90;82.80;;;;;;4913796;29;20048;-87
2022/02/02 20:20:53;;;;;;;8.95;3.50;;;8.90;82.80;;;;;;4914836;29;20058;-87
2022/02/02 20:23:20;;;;;;;8.63;3.60;;;8.80;82.80;;;;;;4899553;29;20050;-88
2022/02/02 20:25:54;;;;;;;6.97;3.25;;;8.80;82.80;;;;;;4909563;29;20062;-88
2022/02/02 20:28:22;;;;;;;11.77;3.70;;;8.80;82.90;;;;;;4914566;29;20048;-87
2022/02/02 20:30:49;;;;;;;13.88;3.95;;;8.70;82.90;;;;;;4914500;29;20460;-88
2022/02/02 20:33:16;;;;;;;9.00;3.50;;;8.70;82.90;;;;;;4915642;29;20216;-89
2022/02/02 20:35:43;;;;;;;8.88;3.33;;;8.70;82.90;;;;;;4952707;28;20047;-88
2022/02/02 20:38:11;;;;;;;9.23;3.47;;;8.70;83.00;;;;;;4952438;28;20067;-87
2022/02/02 20:40:39;;;;;;;10.85;3.55;;;8.60;82.90;;;;;;4951261;29;20154;-88
2022/02/02 20:43:13;;;;;;;9.05;3.53;;;8.60;83.00;;;;;;4952495;28;20497;-88
2022/02/02 21:05:21;;;;;;;12.80;4.03;;;8.40;83.20;;;;;;4988970;28;20051;-87
2022/02/02 21:10:31;;;;;;;11.45;4.20;;;8.40;83.30;;;;;;4993621;28;20054;-88
2022/02/02 21:15:44;;;;;;;10.68;3.60;;;8.40;83.40;;;;;;4992907;28;20055;-88
2022/02/02 21:18:17;;;;;;;15.23;4.35;;;8.40;83.50;;;;;;4995905;28;20054;-87
2022/02/02 21:24:18;;;;;;;11.20;3.90;;;8.40;83.50;;;;;;4975576;28;20053;-87
2022/02/02 21:29:17;;;;;;;11.38;4.50;;;8.40;83.60;;;;;;4996648;28;20047;-89
2022/02/02 21:31:44;;;;;;;10.40;4.20;;;8.40;83.60;;;;;;4995820;28;20054;-88
2022/02/02 21:34:11;;;;;;;10.50;3.75;;;8.30;83.60;;;;;;4996007;28;20057;-88
2022/02/02 21:36:38;;;;;;;8.70;4.18;;;8.30;83.70;;;;;;4996652;28;20064;-87
2022/02/02 21:39:08;;;;;;;10.68;4.20;;;8.40;83.70;;;;;;4995339;28;20046;-88
2022/02/02 21:41:39;;;;;;;9.38;4.05;;;8.40;83.70;;;;;;4996124;28;20125;-87
2022/02/02 21:44:09;;;;;;;14.02;4.30;;;8.40;83.80;;;;;;4996472;28;20062;-87
2022/02/02 21:46:36;;;;;;;10.45;4.30;;;8.40;83.70;;;;;;4995840;28;20053;-87
2022/02/02 21:49:05;;;;;;;11.80;4.10;;;8.40;83.70;;;;;;4994675;28;20054;-88
2022/02/02 21:51:51;;;;;;;8.57;4.25;;;8.40;83.80;;;;;;4996352;28;20050;-88
2022/02/02 21:54:19;;;;;;;9.30;4.65;;;8.40;83.70;;;;;;4996050;28;20051;-88
2022/02/02 21:56:46;;;;;;;9.90;4.70;;;8.40;83.80;;;;;;4995060;28;20495;-87
2022/02/02 21:59:13;;;;;;;10.82;4.93;;;8.40;83.80;;;;;;4996093;28;20056;-88
2022/02/02 22:01:40;;;;;;;15.27;5.82;;;8.40;83.80;;;;;;4994047;28;20058;-87
2022/02/02 22:04:07;;;;;;;14.65;5.38;;;8.40;83.80;;;;;;4994598;28;20073;-87
2022/02/02 22:06:34;;;;;;;10.80;5.90;;;8.40;83.80;;;;;;4994788;28;20507;-87
2022/02/02 22:09:03;;;;;;;14.02;4.63;;;8.40;83.80;;;;;;4994592;28;20050;-87
2022/02/02 22:11:32;;;;;;;10.52;4.88;;;8.40;83.80;;;;;;4996149;28;20042;-87
2022/02/02 22:14:15;;;;;;;9.68;5.03;;;8.40;83.80;;;;;;4995461;28;20499;-87
2022/02/02 22:16:44;;;;;;;13.68;5.00;;;8.40;83.80;;;;;;4992933;28;20053;-88
2022/02/02 22:19:11;;;;;;;11.20;5.00;;;8.40;83.80;;;;;;4995473;28;20407;-87
2022/02/02 22:21:38;;;;;;;12.70;4.55;;;8.40;83.80;;;;;;4995696;28;20050;-88
2022/02/02 22:24:12;;;;;;;12.48;4.90;;;8.40;83.80;;;;;;4995270;28;20088;-88
2022/02/02 22:26:39;;;;;;;9.60;4.57;;;8.40;83.80;;;;;;4996172;28;20050;-89
2022/02/02 22:29:06;;;;;;;13.18;4.30;;;8.40;83.80;;;;;;4995037;28;20112;-88
2022/02/02 22:31:34;;;;;;;10.18;4.45;;;8.40;83.70;;;;;;4994454;28;20051;-88
2022/02/02 22:34:01;;;;;;;10.23;4.20;;;8.40;83.60;;;;;;4993989;28;20058;-87
2022/02/02 22:36:28;;;;;;;10.32;3.88;;;8.40;83.60;;;;;;4994299;28;20056;-87
2022/02/02 22:38:57;;;;;;;9.30;3.55;;;8.40;83.60;;;;;;4995414;28;20054;-88
2022/02/02 22:41:24;;;;;;;9.35;3.60;;;8.40;83.50;;;;;;4995445;28;20056;-88
2022/02/02 22:43:53;;;;;;;14.88;4.10;;;8.40;83.50;;;;;;4994682;28;20056;-87
2022/02/02 22:46:28;;;;;;;11.98;4.40;;;8.40;83.40;;;;;;4994724;28;20064;-87
2022/02/02 22:48:56;;;;;;;15.55;4.43;;;8.40;83.40;;;;;;4995338;28;20050;-88
2022/02/02 22:51:23;;;;;;;10.93;4.28;;;8.40;83.40;;;;;;4995240;28;20046;-88
2022/02/02 22:53:50;;;;;;;10.60;4.05;;;8.40;83.40;;;;;;4993831;28;20460;-88
2022/02/02 22:56:17;;;;;;;8.63;4.07;;;8.40;83.40;;;;;;4995207;28;20054;-88
2022/02/02 22:58:48;;;;;;;9.80;3.90;;;8.40;83.40;;;;;;4994445;28;20057;-88
2022/02/02 23:01:17;;;;;;;9.45;4.15;;;8.40;83.30;;;;;;4994133;28;20050;-87
2022/02/02 23:03:47;;;;;;;10.80;4.07;;;8.40;83.30;;;;;;4993907;28;20422;-88
2022/02/02 23:06:15;;;;;;;7.75;4.20;;;8.40;83.30;;;;;;4994954;28;20069;-90
2022/02/02 23:08:42;;;;;;;8.23;4.07;;;8.40;83.30;;;;;;4994715;28;20051;-88
2022/02/02 23:11:10;;;;;;;11.82;4.15;;;8.40;83.30;;;;;;4994680;28;20462;-89
2022/02/02 23:13:39;;;;;;;8.23;3.58;;;8.40;83.30;;;;;;4994212;28;20060;-88
2022/02/02 23:16:11;;;;;;;9.88;3.97;;;8.40;83.30;;;;;;4992880;28;20058;-88
2022/02/02 23:18:39;;;;;;;11.43;4.28;;;8.40;83.20;;;;;;4994679;28;20141;-87
2022/02/02 23:21:09;;;;;;;12.68;3.72;;;8.40;83.20;;;;;;4994510;28;20046;-88
2022/02/02 23:23:43;;;;;;;10.32;3.85;;;8.40;83.20;;;;;;4993350;28;20054;-89
2022/02/02 23:26:12;;;;;;;12.27;4.20;;;8.40;83.10;;;;;;4994726;28;20053;-87
2022/02/02 23:28:45;;;;;;;10.10;3.42;;;8.40;83.10;;;;;;4993738;28;20286;-88
2022/02/02 23:31:14;;;;;;;8.38;3.75;;;8.40;83.00;;;;;;4993656;28;20054;-88
2022/02/02 23:33:43;;;;;;;10.32;3.92;;;8.40;83.00;;;;;;4994425;28;20057;-88
2022/02/02 23:36:11;;;;;;;9.20;3.50;;;8.40;83.00;;;;;;4994053;28;20069;-88
2022/02/02 23:38:38;;;;;;;9.35;3.60;;;8.40;83.00;;;;;;4993532;28;20050;-88
2022/02/02 23:43:40;;;;;;;11.55;4.05;;;8.40;82.90;;;;;;4992732;28;20070;-87
2022/02/02 23:46:17;;;;;;;10.88;3.78;;;8.40;82.90;;;;;;4994216;28;20054;-88
2022/02/02 23:48:48;;;;;;;8.85;3.70;;;8.40;82.90;;;;;;4994395;28;20057;-89
2022/02/02 23:51:32;;;;;;;9.80;3.53;;;8.40;82.90;;;;;;4993313;28;20065;-88
2022/02/02 23:54:02;;;;;;;11.40;3.70;;;8.40;82.90;;;;;;4994377;28;20084;-88
2022/02/02 23:57:08;;;;;;;9.95;3.60;;;8.40;82.90;;;;;;4994461;28;20415;-88
